Time;durP1;ratioP1;P1;durP2;ratioP2;P2;SDS_P1;SDS_P2;PMS_P1;PMS_P2;Temp;Humidity;BMP_temperature;BMP_pressure;BME280_temperature;BME280_humidity;BME280_pressure;Samples;Min_cycle;Max_cycle;Signal;HPM_P1;HPM_P2
2023/03/18 00:01:13;;;;;;;3.85;2.42;;;13.60;99.90;;;;;;4990295;28;20037;-43
2023/03/18 00:03:39;;;;;;;4.38;3.00;;;13.50;99.90;;;;;;5001638;28;20322;-43
2023/03/18 00:06:07;;;;;;;4.68;3.00;;;13.60;99.90;;;;;;5001410;28;20034;-43
2023/03/18 00:08:33;;;;;;;3.25;2.95;;;13.60;99.90;;;;;;4999823;28;20042;-44
2023/03/18 00:10:59;;;;;;;3.65;2.90;;;13.50;99.90;;;;;;5002120;28;20053;-43
2023/03/18 00:13:26;;;;;;;4.97;3.00;;;13.50;99.90;;;;;;5001188;28;20133;-43
2023/03/18 00:15:52;;;;;;;4.47;2.97;;;13.60;99.90;;;;;;5001050;28;20065;-43
2023/03/18 00:18:18;;;;;;;4.20;2.83;;;13.50;99.90;;;;;;4985126;28;20113;-43
2023/03/18 00:20:44;;;;;;;5.60;3.22;;;13.50;99.90;;;;;;4997305;28;20048;-43
2023/03/18 00:23:10;;;;;;;4.88;3.28;;;13.50;99.90;;;;;;4981265;28;20034;-43
2023/03/18 00:25:37;;;;;;;4.35;3.17;;;13.40;99.90;;;;;;4995827;28;20028;-43
2023/03/18 00:28:05;;;;;;;5.00;3.58;;;13.40;99.90;;;;;;5000443;28;20057;-44
2023/03/18 00:30:32;;;;;;;6.97;3.30;;;13.30;99.90;;;;;;5000049;28;20457;-44
2023/03/18 00:32:58;;;;;;;5.63;3.47;;;13.30;99.90;;;;;;5002192;28;20026;-44
2023/03/18 00:35:29;;;;;;;3.72;3.08;;;13.20;99.90;;;;;;5001698;28;20017;-43
2023/03/18 00:37:56;;;;;;;4.88;3.15;;;13.10;99.90;;;;;;4994377;28;20038;-43
2023/03/18 00:40:29;;;;;;;6.03;3.17;;;13.10;99.90;;;;;;4996060;28;20341;-44
2023/03/18 00:43:06;;;;;;;5.25;3.45;;;13.00;99.90;;;;;;5001357;28;20030;-43
2023/03/18 00:45:39;;;;;;;5.50;3.50;;;13.00;99.90;;;;;;5001144;28;20117;-44
2023/03/18 00:48:06;;;;;;;5.75;3.22;;;13.00;99.90;;;;;;4995032;28;20022;-43
2023/03/18 00:50:33;;;;;;;4.70;3.35;;;13.00;99.90;;;;;;4987882;28;20033;-43
2023/03/18 00:53:02;;;;;;;6.07;3.92;;;13.00;99.90;;;;;;5000910;28;20037;-43
2023/03/18 00:55:32;;;;;;;5.35;3.60;;;13.00;99.90;;;;;;5000374;28;20029;-43
2023/03/18 00:58:01;;;;;;;4.15;3.30;;;13.00;99.90;;;;;;4995171;28;20038;-44
2023/03/18 01:00:30;;;;;;;5.50;3.88;;;13.00;99.90;;;;;;4983839;28;20045;-44
2023/03/18 01:02:56;;;;;;;5.30;3.40;;;13.00;99.90;;;;;;5001027;28;20053;-43
2023/03/18 01:05:23;;;;;;;5.95;3.80;;;13.00;99.90;;;;;;4999567;28;20453;-43
2023/03/18 01:07:49;;;;;;;5.18;4.50;;;13.00;99.90;;;;;;4999955;28;20046;-43
2023/03/18 01:10:15;;;;;;;5.30;3.80;;;13.00;99.90;;;;;;5000662;28;20026;-42
2023/03/18 01:12:42;;;;;;;6.13;3.80;;;13.00;99.90;;;;;;4991815;28;20030;-42
2023/03/18 01:15:12;;;;;;;5.65;3.58;;;13.00;99.90;;;;;;5001134;28;20116;-43
2023/03/18 01:17:38;;;;;;;6.85;3.85;;;13.00;99.90;;;;;;5000531;28;20046;-44
2023/03/18 01:20:04;;;;;;;5.65;3.78;;;13.00;99.90;;;;;;4998979;28;20029;-43
2023/03/18 01:22:30;;;;;;;5.97;3.92;;;13.00;99.90;;;;;;5000553;28;20022;-43
2023/03/18 01:24:56;;;;;;;4.90;3.90;;;12.90;99.90;;;;;;5000856;28;20036;-43
2023/03/18 01:27:22;;;;;;;4.72;3.70;;;12.90;99.90;;;;;;4998714;28;20076;-42
2023/03/18 01:29:47;;;;;;;7.82;4.40;;;12.90;99.90;;;;;;5001418;28;20121;-42
2023/03/18 01:32:13;;;;;;;9.05;4.97;;;12.90;99.90;;;;;;5000042;28;20031;-43
2023/03/18 01:34:40;;;;;;;8.82;4.30;;;12.90;99.90;;;;;;5000057;28;20537;-43
2023/03/18 01:37:06;;;;;;;5.55;3.90;;;12.90;99.90;;;;;;5000230;28;20080;-43
2023/03/18 01:39:33;;;;;;;6.55;3.92;;;12.90;99.90;;;;;;4991992;28;20188;-43
2023/03/18 01:42:05;;;;;;;6.90;4.18;;;12.80;99.90;;;;;;4999818;28;20104;-43
2023/03/18 01:44:30;;;;;;;7.53;4.30;;;12.90;99.90;;;;;;5000532;28;20025;-43
2023/03/18 01:46:56;;;;;;;7.00;4.85;;;12.90;99.90;;;;;;5000203;28;20025;-43
2023/03/18 01:49:29;;;;;;;6.93;4.43;;;12.90;99.90;;;;;;4997527;28;21101;-43
2023/03/18 01:51:59;;;;;;;5.88;4.53;;;12.90;99.90;;;;;;5000531;28;20489;-43
2023/03/18 01:54:27;;;;;;;7.20;4.50;;;12.90;99.90;;;;;;4998677;28;20153;-43
2023/03/18 01:56:54;;;;;;;5.57;4.10;;;12.90;99.90;;;;;;4999833;28;20034;-43
2023/03/18 01:59:25;;;;;;;6.82;4.20;;;12.90;99.90;;;;;;4996566;28;20069;-42
2023/03/18 02:01:57;;;;;;;7.50;4.70;;;12.80;99.90;;;;;;4999021;28;20037;-43
2023/03/18 02:04:26;;;;;;;6.28;4.55;;;12.80;99.90;;;;;;4999191;28;20032;-43
2023/03/18 02:06:56;;;;;;;7.45;4.35;;;12.80;99.90;;;;;;4982896;28;20569;-43
2023/03/18 02:09:21;;;;;;;6.65;4.60;;;12.80;99.90;;;;;;4993846;28;20030;-44
2023/03/18 02:11:48;;;;;;;6.15;4.70;;;12.80;99.90;;;;;;5000612;28;20026;-43
2023/03/18 02:14:16;;;;;;;7.47;4.30;;;12.80;99.90;;;;;;5000341;28;20025;-43
2023/03/18 02:17:04;;;;;;;6.63;4.60;;;12.70;99.90;;;;;;4999599;28;20034;-44
2023/03/18 02:19:45;;;;;;;6.97;4.70;;;12.70;99.90;;;;;;4998921;28;20030;-43
2023/03/18 02:22:32;;;;;;;8.85;5.38;;;12.70;99.90;;;;;;4978727;28;20034;-43
2023/03/18 02:25:18;;;;;;;5.13;4.10;;;12.70;99.90;;;;;;4995674;28;20486;-44
2023/03/18 02:27:48;;;;;;;6.25;4.72;;;12.60;99.90;;;;;;4982378;28;20861;-43
2023/03/18 02:30:21;;;;;;;8.25;4.63;;;12.60;99.90;;;;;;4997576;28;20037;-43
2023/03/18 02:32:49;;;;;;;7.63;4.72;;;12.60;99.90;;;;;;5000129;28;20717;-43
2023/03/18 02:35:15;;;;;;;10.10;5.00;;;12.50;99.90;;;;;;4997908;28;20497;-42
2023/03/18 02:37:41;;;;;;;7.97;5.00;;;12.50;99.90;;;;;;4994747;28;20927;-42
2023/03/18 02:40:26;;;;;;;7.05;4.90;;;12.50;99.90;;;;;;4993333;28;20120;-43
2023/03/18 02:42:52;;;;;;;9.23;5.25;;;12.50;99.90;;;;;;4979961;28;20379;-43
2023/03/18 02:45:59;;;;;;;6.60;5.18;;;12.50;99.90;;;;;;4991845;28;20057;-43
2023/03/18 02:48:32;;;;;;;7.25;5.20;;;12.40;99.90;;;;;;4988046;28;20040;-43
2023/03/18 02:50:58;;;;;;;7.35;4.88;;;12.40;99.90;;;;;;4999045;28;20128;-43
2023/03/18 02:53:23;;;;;;;6.80;5.15;;;12.30;99.90;;;;;;5000081;28;20030;-43
2023/03/18 02:55:49;;;;;;;6.78;5.30;;;12.40;99.90;;;;;;4999694;28;20030;-43
2023/03/18 02:58:15;;;;;;;8.48;5.70;;;12.40;99.90;;;;;;4990927;28;20054;-43
2023/03/18 03:00:44;;;;;;;5.60;4.85;;;12.40;99.90;;;;;;4989014;28;20036;-43
2023/03/18 03:03:10;;;;;;;7.65;5.40;;;12.40;99.90;;;;;;4996842;28;20034;-43
2023/03/18 03:05:35;;;;;;;7.05;5.03;;;12.50;99.90;;;;;;4999045;28;20028;-42
2023/03/18 03:08:01;;;;;;;9.70;5.53;;;12.50;99.90;;;;;;4993943;28;20117;-43
2023/03/18 03:10:27;;;;;;;9.23;5.43;;;12.50;99.90;;;;;;4987722;28;20018;-44
2023/03/18 03:12:53;;;;;;;8.52;5.47;;;12.50;99.90;;;;;;4998326;28;20153;-44
2023/03/18 03:15:19;;;;;;;9.68;5.70;;;12.50;99.90;;;;;;4998950;28;20129;-43
2023/03/18 03:17:45;;;;;;;7.13;5.50;;;12.50;99.90;;;;;;4998569;28;20091;-43
2023/03/18 03:20:12;;;;;;;9.13;5.18;;;12.50;99.90;;;;;;5000882;28;20080;-44
2023/03/18 03:22:38;;;;;;;5.90;5.30;;;12.50;99.90;;;;;;5003009;28;20044;-43
2023/03/18 03:25:08;;;;;;;7.68;5.68;;;12.60;99.90;;;;;;5001848;28;20026;-43
2023/03/18 03:27:34;;;;;;;6.80;5.47;;;12.60;99.90;;;;;;5001203;28;20022;-43
2023/03/18 03:30:08;;;;;;;7.68;5.43;;;12.60;99.90;;;;;;4983465;28;20631;-43
2023/03/18 03:32:34;;;;;;;8.20;5.38;;;12.70;99.90;;;;;;5001374;28;20014;-43
2023/03/18 03:34:59;;;;;;;7.78;5.60;;;12.60;99.90;;;;;;5000939;28;20045;-43
2023/03/18 03:37:26;;;;;;;9.55;5.75;;;12.70;99.90;;;;;;5001978;28;20030;-42
2023/03/18 03:39:52;;;;;;;5.93;5.32;;;12.60;99.90;;;;;;4983933;28;20034;-42
2023/03/18 03:42:18;;;;;;;10.13;5.82;;;12.60;99.90;;;;;;4997391;28;20192;-42
2023/03/18 03:44:44;;;;;;;9.40;6.03;;;12.60;99.90;;;;;;5002752;28;20023;-43
2023/03/18 03:47:10;;;;;;;8.80;6.05;;;12.70;99.90;;;;;;5000592;28;20607;-43
2023/03/18 03:49:36;;;;;;;9.57;6.45;;;12.60;99.90;;;;;;5001579;28;20037;-44
2023/03/18 03:52:02;;;;;;;12.18;6.47;;;12.60;99.90;;;;;;5002427;28;20736;-44
2023/03/18 03:54:28;;;;;;;10.75;7.13;;;12.50;99.90;;;;;;5001582;28;20026;-44
2023/03/18 03:56:53;;;;;;;11.00;7.00;;;12.50;99.90;;;;;;5001910;28;20543;-43
2023/03/18 03:59:22;;;;;;;9.77;6.40;;;12.50;99.90;;;;;;4993941;28;20777;-44
2023/03/18 04:01:47;;;;;;;11.57;6.95;;;12.50;99.90;;;;;;4996087;28;20036;-46
2023/03/18 04:04:13;;;;;;;8.77;6.53;;;12.50;99.90;;;;;;5001638;28;20026;-43
2023/03/18 04:06:39;;;;;;;9.90;6.93;;;12.50;99.90;;;;;;5002518;28;20029;-42
2023/03/18 04:09:04;;;;;;;10.45;7.70;;;12.50;99.90;;;;;;4991989;28;20018;-43
2023/03/18 04:11:30;;;;;;;8.63;6.40;;;12.40;99.90;;;;;;4984477;28;20035;-43
2023/03/18 04:14:02;;;;;;;8.52;6.72;;;12.40;99.90;;;;;;5001077;28;20055;-44
2023/03/18 04:16:27;;;;;;;9.05;6.53;;;12.40;99.90;;;;;;5001444;28;20495;-44
2023/03/18 04:18:53;;;;;;;9.30;6.82;;;12.40;99.90;;;;;;5001514;28;20040;-44
2023/03/18 04:21:24;;;;;;;7.85;6.47;;;12.40;99.90;;;;;;5001806;28;20108;-43
2023/03/18 04:23:53;;;;;;;9.68;6.93;;;12.40;99.90;;;;;;5000269;28;20065;-42
2023/03/18 04:26:25;;;;;;;10.52;7.35;;;12.30;99.90;;;;;;4982163;28;20030;-44
2023/03/18 04:28:50;;;;;;;10.67;7.60;;;12.30;99.90;;;;;;4994506;28;20026;-44
2023/03/18 04:31:16;;;;;;;10.82;7.30;;;12.40;99.90;;;;;;5000263;28;20112;-43
2023/03/18 04:33:43;;;;;;;9.65;7.43;;;12.30;99.90;;;;;;5001955;28;20093;-43
2023/03/18 04:36:09;;;;;;;10.32;7.47;;;12.40;99.90;;;;;;5000163;28;20037;-43
2023/03/18 04:38:35;;;;;;;13.15;8.68;;;12.30;99.90;;;;;;5000635;28;20030;-43
2023/03/18 04:41:01;;;;;;;11.13;9.02;;;12.30;99.90;;;;;;5001486;28;20036;-43
2023/03/18 04:43:27;;;;;;;13.43;8.77;;;12.40;99.90;;;;;;4999813;28;20037;-43
2023/03/18 04:45:52;;;;;;;12.82;8.90;;;12.30;99.90;;;;;;5001278;28;20022;-43
2023/03/18 04:48:21;;;;;;;10.30;8.82;;;12.40;99.90;;;;;;4999712;28;20484;-43
2023/03/18 04:50:47;;;;;;;12.77;8.60;;;12.40;99.90;;;;;;4999395;28;20913;-43
2023/03/18 04:53:12;;;;;;;12.23;8.60;;;12.40;99.90;;;;;;4999750;28;20034;-42
2023/03/18 04:55:39;;;;;;;10.98;8.20;;;12.40;99.90;;;;;;5000970;28;20038;-42
2023/03/18 04:58:14;;;;;;;11.60;8.13;;;12.40;99.90;;;;;;4998590;28;20509;-42
2023/03/18 05:00:39;;;;;;;11.35;8.45;;;12.40;99.90;;;;;;5000216;28;20559;-42
2023/03/18 05:03:06;;;;;;;12.85;8.25;;;12.30;99.90;;;;;;5001034;28;20025;-42
2023/03/18 05:05:33;;;;;;;13.45;9.43;;;12.30;99.90;;;;;;4999489;28;20026;-43
2023/03/18 05:07:58;;;;;;;15.80;9.05;;;12.30;99.90;;;;;;4997217;28;21064;-43
2023/03/18 05:10:24;;;;;;;11.40;8.88;;;12.20;99.90;;;;;;4997360;28;20117;-44
2023/03/18 05:12:50;;;;;;;12.25;8.95;;;12.30;99.90;;;;;;4999914;28;20382;-43
2023/03/18 05:15:16;;;;;;;13.73;9.25;;;12.20;99.90;;;;;;5000782;28;20022;-44
2023/03/18 05:17:41;;;;;;;14.35;8.77;;;12.20;99.90;;;;;;4987715;28;20041;-43
2023/03/18 05:20:09;;;;;;;11.77;8.70;;;12.20;99.90;;;;;;4999361;28;20044;-44
2023/03/18 05:22:35;;;;;;;12.68;8.98;;;12.10;99.90;;;;;;5001353;28;20734;-43
2023/03/18 05:25:01;;;;;;;13.15;9.10;;;12.10;99.90;;;;;;4999713;28;20386;-43
2023/03/18 05:27:28;;;;;;;13.18;8.18;;;12.10;99.90;;;;;;4996343;28;20030;-43
2023/03/18 05:29:54;;;;;;;12.02;9.20;;;12.00;99.90;;;;;;4989268;28;20026;-43
2023/03/18 05:32:20;;;;;;;13.27;9.40;;;12.00;99.90;;;;;;4999572;28;20057;-43
2023/03/18 05:34:46;;;;;;;15.10;10.18;;;12.00;99.90;;;;;;5001424;28;20113;-43
2023/03/18 05:37:13;;;;;;;14.23;9.75;;;12.00;99.90;;;;;;5000053;28;20044;-43
2023/03/18 05:39:39;;;;;;;15.40;10.13;;;12.00;99.90;;;;;;4986288;28;20035;-44
2023/03/18 05:42:05;;;;;;;13.43;9.55;;;12.00;99.90;;;;;;4996370;28;20025;-44
2023/03/18 05:44:31;;;;;;;14.82;9.80;;;12.00;99.90;;;;;;5000902;28;20137;-44
2023/03/18 05:46:57;;;;;;;14.18;10.10;;;12.00;99.90;;;;;;4988275;28;20033;-43
2023/03/18 05:49:23;;;;;;;14.13;10.05;;;12.10;99.90;;;;;;4990751;28;20362;-42
2023/03/18 05:51:52;;;;;;;14.65;10.30;;;12.10;99.90;;;;;;4996764;28;20022;-43
2023/03/18 05:54:20;;;;;;;13.07;9.95;;;12.10;99.90;;;;;;4998966;28;20044;-43
2023/03/18 05:56:46;;;;;;;14.20;10.27;;;12.10;99.90;;;;;;4999552;28;20030;-44
2023/03/18 05:59:13;;;;;;;12.40;9.50;;;12.10;99.90;;;;;;4998880;28;20057;-43
2023/03/18 06:01:40;;;;;;;14.40;9.15;;;12.00;99.90;;;;;;4995256;28;20042;-43
2023/03/18 06:04:07;;;;;;;12.25;9.68;;;12.00;99.90;;;;;;4989381;28;20033;-43
2023/03/18 06:06:34;;;;;;;12.75;9.88;;;12.00;99.90;;;;;;4990333;28;20030;-43
2023/03/18 06:09:00;;;;;;;15.63;10.68;;;12.00;99.90;;;;;;4991524;28;20100;-42
2023/03/18 06:11:27;;;;;;;11.68;9.45;;;12.00;99.90;;;;;;4987455;28;20548;-42
2023/03/18 06:13:52;;;;;;;14.35;11.02;;;12.00;99.90;;;;;;4999834;28;20180;-42
2023/03/18 06:16:18;;;;;;;15.45;10.43;;;12.10;99.90;;;;;;4999082;28;20034;-43
2023/03/18 06:18:43;;;;;;;14.02;10.32;;;12.10;99.90;;;;;;4999189;28;20092;-43
2023/03/18 06:21:09;;;;;;;12.88;8.90;;;12.10;99.90;;;;;;4999817;28;20924;-43
2023/03/18 06:23:36;;;;;;;13.65;10.30;;;12.10;99.90;;;;;;4999510;28;20026;-43
2023/03/18 06:26:02;;;;;;;14.80;11.05;;;12.10;99.90;;;;;;4999634;28;20037;-44
2023/03/18 06:28:34;;;;;;;13.35;10.65;;;12.20;99.90;;;;;;4998276;28;20022;-42
2023/03/18 06:31:00;;;;;;;14.93;10.83;;;12.20;99.90;;;;;;5000422;28;20038;-43
2023/03/18 06:33:26;;;;;;;14.02;10.43;;;12.20;99.90;;;;;;5000037;28;20536;-43
2023/03/18 06:35:53;;;;;;;14.27;9.50;;;12.20;99.90;;;;;;4998897;28;20030;-42
2023/03/18 06:38:19;;;;;;;14.68;10.25;;;12.20;99.90;;;;;;4998720;28;20091;-42
2023/03/18 06:40:46;;;;;;;13.27;10.27;;;12.20;99.90;;;;;;4980791;28;20458;-42
2023/03/18 06:43:12;;;;;;;12.52;10.55;;;12.20;99.90;;;;;;4993168;28;20068;-42
2023/03/18 06:45:38;;;;;;;15.35;11.48;;;12.30;99.90;;;;;;5000770;28;20733;-43
2023/03/18 06:48:10;;;;;;;16.33;11.13;;;12.30;99.90;;;;;;4999303;28;20229;-44
2023/03/18 06:50:38;;;;;;;14.02;11.20;;;12.40;99.90;;;;;;4998303;28;20056;-43
2023/03/18 06:53:04;;;;;;;15.32;11.13;;;12.50;99.90;;;;;;5000866;28;20026;-43
2023/03/18 06:55:30;;;;;;;13.98;10.55;;;12.50;99.90;;;;;;5002661;28;20030;-44
2023/03/18 06:57:56;;;;;;;13.75;10.30;;;12.60;99.90;;;;;;5003196;28;20512;-44
2023/03/18 07:00:23;;;;;;;14.90;11.07;;;12.60;99.90;;;;;;5002852;28;20061;-43
2023/03/18 07:02:51;;;;;;;13.32;10.65;;;12.60;99.90;;;;;;5003626;28;20100;-44
2023/03/18 07:05:18;;;;;;;14.35;11.23;;;12.60;99.90;;;;;;5002051;28;20487;-44
2023/03/18 07:07:45;;;;;;;13.80;10.30;;;12.50;99.90;;;;;;4989807;28;20033;-42
2023/03/18 07:10:21;;;;;;;15.40;11.65;;;12.50;99.90;;;;;;5002620;28;20034;-43
2023/03/18 07:12:47;;;;;;;15.73;11.02;;;12.50;99.90;;;;;;5002750;28;20044;-44
2023/03/18 07:15:16;;;;;;;15.20;11.30;;;12.50;99.90;;;;;;4995488;28;20385;-45
2023/03/18 07:17:42;;;;;;;12.60;10.23;;;12.50;99.90;;;;;;5002932;28;20045;-44
2023/03/18 07:20:09;;;;;;;13.15;10.18;;;12.50;99.90;;;;;;5001479;28;20113;-44
2023/03/18 07:22:37;;;;;;;14.73;9.30;;;12.50;99.90;;;;;;5003250;28;20813;-44
2023/03/18 07:25:03;;;;;;;10.32;8.75;;;12.60;99.90;;;;;;4992944;28;20068;-44
2023/03/18 07:27:29;;;;;;;13.32;10.52;;;12.70;99.90;;;;;;5003327;28;20036;-43
2023/03/18 07:29:55;;;;;;;12.32;9.55;;;12.70;99.90;;;;;;5003553;28;20425;-44
2023/03/18 07:32:22;;;;;;;12.50;10.60;;;12.70;99.90;;;;;;5001796;28;20030;-44
2023/03/18 07:34:51;;;;;;;14.05;10.57;;;12.60;99.90;;;;;;5001697;28;20022;-44
2023/03/18 07:37:17;;;;;;;14.70;10.85;;;12.60;99.90;;;;;;5002014;28;20048;-43
2023/03/18 07:39:42;;;;;;;15.85;11.40;;;12.50;99.90;;;;;;4997961;28;20030;-43
2023/03/18 07:42:09;;;;;;;16.08;11.18;;;12.50;99.90;;;;;;4995702;28;20030;-43
2023/03/18 07:44:35;;;;;;;12.65;10.75;;;12.40;99.90;;;;;;5002796;28;20104;-43
2023/03/18 07:47:02;;;;;;;15.07;11.02;;;12.40;99.90;;;;;;5001455;28;20658;-43
2023/03/18 07:49:28;;;;;;;13.85;10.50;;;12.40;99.90;;;;;;5000645;28;20022;-42
2023/03/18 07:51:57;;;;;;;11.70;10.50;;;12.50;99.90;;;;;;4994739;28;20033;-43
2023/03/18 07:54:23;;;;;;;14.88;10.32;;;12.50;99.90;;;;;;5001384;28;20049;-43
2023/03/18 07:56:50;;;;;;;11.50;9.18;;;12.60;99.90;;;;;;5001914;28;20481;-43
2023/03/18 07:59:16;;;;;;;14.02;10.52;;;12.60;99.90;;;;;;5002129;28;20084;-44
2023/03/18 08:01:42;;;;;;;14.35;10.77;;;12.70;99.90;;;;;;4995334;28;20134;-44
2023/03/18 08:04:07;;;;;;;11.75;9.80;;;12.70;99.90;;;;;;4986648;28;20845;-44
2023/03/18 08:06:33;;;;;;;12.75;10.07;;;12.70;99.90;;;;;;5001603;28;20026;-43
2023/03/18 08:08:59;;;;;;;11.80;9.30;;;12.70;99.90;;;;;;5001434;28;20738;-44
2023/03/18 08:11:25;;;;;;;13.05;10.48;;;12.80;99.90;;;;;;5001566;28;20092;-43
2023/03/18 08:13:51;;;;;;;12.07;8.93;;;12.80;99.90;;;;;;4999281;28;20536;-44
2023/03/18 08:16:17;;;;;;;12.00;10.23;;;12.80;99.90;;;;;;4987527;28;20049;-43
2023/03/18 08:18:43;;;;;;;11.82;9.10;;;12.90;99.90;;;;;;4986525;28;20070;-44
2023/03/18 08:21:09;;;;;;;14.38;10.32;;;13.00;99.90;;;;;;4992182;28;20184;-44
2023/03/18 08:23:35;;;;;;;12.85;10.45;;;13.10;99.90;;;;;;4987007;28;20493;-44
2023/03/18 08:26:01;;;;;;;11.55;9.20;;;13.20;99.90;;;;;;4990390;28;20784;-44
2023/03/18 08:28:27;;;;;;;14.38;10.50;;;13.30;99.90;;;;;;5000387;28;20033;-44
2023/03/18 08:30:56;;;;;;;12.30;9.90;;;13.50;99.90;;;;;;5001139;28;20026;-44
2023/03/18 08:33:23;;;;;;;11.70;8.65;;;13.60;99.90;;;;;;4997418;28;20366;-44
2023/03/18 08:35:49;;;;;;;10.18;9.13;;;13.60;99.90;;;;;;4999136;28;20026;-44
2023/03/18 08:38:15;;;;;;;12.98;8.57;;;13.70;99.90;;;;;;5001210;28;20026;-44
2023/03/18 08:40:41;;;;;;;8.68;7.68;;;13.80;99.90;;;;;;4984827;28;20034;-44
2023/03/18 08:43:07;;;;;;;9.60;7.57;;;14.00;99.90;;;;;;4993025;28;20068;-42
2023/03/18 08:45:35;;;;;;;10.20;8.38;;;14.10;99.90;;;;;;4997956;28;20113;-43
2023/03/18 08:48:01;;;;;;;9.15;7.45;;;14.30;99.90;;;;;;5000021;28;20916;-43
2023/03/18 08:50:28;;;;;;;8.98;7.20;;;14.40;99.90;;;;;;4991271;28;20113;-43
2023/03/18 08:52:56;;;;;;;10.15;7.32;;;14.50;99.90;;;;;;4995341;28;20040;-43
2023/03/18 08:55:26;;;;;;;10.80;7.57;;;14.50;99.90;;;;;;4993066;28;20022;-44
2023/03/18 08:57:52;;;;;;;10.15;8.75;;;14.50;99.90;;;;;;4996465;28;20061;-42
2023/03/18 09:00:19;;;;;;;12.32;9.00;;;14.50;99.90;;;;;;5000546;28;20874;-43
2023/03/18 09:02:44;;;;;;;8.18;6.57;;;14.60;99.90;;;;;;5001015;28;20071;-43
2023/03/18 09:05:10;;;;;;;8.40;6.35;;;14.70;99.90;;;;;;4999569;28;20480;-42
2023/03/18 09:07:36;;;;;;;10.48;7.57;;;14.80;99.90;;;;;;4993645;28;20034;-43
2023/03/18 09:10:03;;;;;;;7.78;6.97;;;15.00;99.90;;;;;;4994866;28;20466;-43
2023/03/18 09:12:31;;;;;;;10.63;7.50;;;15.10;99.90;;;;;;4996803;28;20078;-43
2023/03/18 09:14:57;;;;;;;9.05;6.65;;;15.20;99.90;;;;;;4998125;28;20053;-43
2023/03/18 09:17:23;;;;;;;8.05;6.00;;;15.30;99.90;;;;;;4985682;28;20986;-43
2023/03/18 09:19:49;;;;;;;6.30;5.50;;;15.30;99.90;;;;;;5001407;28;20024;-44
2023/03/18 09:22:15;;;;;;;7.55;6.53;;;15.40;99.90;;;;;;5000567;28;20497;-44
2023/03/18 09:24:41;;;;;;;7.70;6.32;;;15.40;99.90;;;;;;5000029;28;20478;-45
2023/03/18 09:27:06;;;;;;;6.90;6.20;;;15.40;99.90;;;;;;5000072;28;20026;-44
2023/03/18 09:29:32;;;;;;;7.53;6.10;;;15.30;99.90;;;;;;5000235;28;20812;-44
2023/03/18 09:32:00;;;;;;;6.78;6.05;;;15.30;99.90;;;;;;5000168;28;20048;-43
2023/03/18 09:34:26;;;;;;;8.40;6.00;;;15.30;99.90;;;;;;5000537;28;20033;-43
2023/03/18 09:36:51;;;;;;;7.30;6.28;;;15.30;99.90;;;;;;5001049;28;20033;-43
2023/03/18 09:39:20;;;;;;;8.15;6.60;;;15.30;99.90;;;;;;4999653;28;20056;-43
2023/03/18 09:42:20;;;;;;;6.45;5.85;;;15.30;99.90;;;;;;5000557;28;20045;-44
2023/03/18 09:44:53;;;;;;;5.97;5.38;;;15.40;99.90;;;;;;5001083;28;20033;-44
2023/03/18 09:47:36;;;;;;;6.40;5.80;;;15.40;99.90;;;;;;4999843;28;20026;-43
2023/03/18 09:50:30;;;;;;;6.30;5.50;;;15.40;99.90;;;;;;5000213;28;20092;-43
2023/03/18 09:53:25;;;;;;;5.82;5.28;;;15.40;99.90;;;;;;5000214;28;20036;-43
2023/03/18 09:55:59;;;;;;;6.90;6.20;;;15.40;99.90;;;;;;4999111;28;20042;-43
2023/03/18 09:58:39;;;;;;;6.32;5.55;;;15.30;99.90;;;;;;5000523;28;20046;-44
2023/03/18 10:01:07;;;;;;;7.63;6.85;;;15.30;99.90;;;;;;4999702;28;20022;-43
2023/03/18 10:03:55;;;;;;;8.02;6.28;;;15.30;99.90;;;;;;5000275;28;20481;-43
2023/03/18 10:06:23;;;;;;;6.72;5.88;;;15.20;99.90;;;;;;4988390;28;20042;-43
2023/03/18 10:09:05;;;;;;;7.65;6.40;;;15.20;99.90;;;;;;4999837;28;20757;-43
2023/03/18 10:11:47;;;;;;;8.00;6.60;;;15.20;99.90;;;;;;4989317;28;20532;-43
2023/03/18 10:14:25;;;;;;;7.65;6.82;;;15.30;99.90;;;;;;4998816;28;20029;-43
2023/03/18 10:17:02;;;;;;;7.50;6.35;;;15.30;99.90;;;;;;4990805;28;20049;-44
2023/03/18 10:19:28;;;;;;;6.32;5.72;;;15.40;99.90;;;;;;4999829;28;20355;-43
2023/03/18 10:22:08;;;;;;;7.28;5.90;;;15.40;99.90;;;;;;4999114;28;20029;-43
2023/03/18 10:24:46;;;;;;;6.35;5.50;;;15.40;99.90;;;;;;5000312;28;20018;-44
2023/03/18 10:27:29;;;;;;;7.03;5.28;;;15.40;99.90;;;;;;4989878;28;20021;-43
2023/03/18 10:30:13;;;;;;;6.40;5.28;;;15.40;99.90;;;;;;5004369;28;20366;-43
2023/03/18 10:33:09;;;;;;;4.90;4.40;;;15.40;99.90;;;;;;5004060;28;20116;-44
2023/03/18 10:35:47;;;;;;;5.70;5.03;;;15.30;99.90;;;;;;5002715;28;20107;-44
2023/03/18 10:38:25;;;;;;;6.65;5.47;;;15.30;99.90;;;;;;5003395;28;20034;-43
2023/03/18 10:40:52;;;;;;;5.63;4.68;;;15.30;99.90;;;;;;5004302;28;20700;-44
2023/03/18 10:43:24;;;;;;;6.90;5.43;;;15.30;99.90;;;;;;5002825;28;20022;-43
2023/03/18 10:46:03;;;;;;;;;;;15.30;99.90;;;;;;5003287;28;20796;-43
2023/03/18 10:48:37;;;;;;;7.25;5.68;;;15.30;99.90;;;;;;5003501;28;20024;-43
2023/03/18 10:51:13;;;;;;;6.63;5.40;;;15.30;99.90;;;;;;5002701;28;20022;-43
2023/03/18 10:54:11;;;;;;;5.80;4.55;;;15.40;99.90;;;;;;5003614;28;20034;-43
2023/03/18 10:56:37;;;;;;;4.85;4.20;;;15.40;99.90;;;;;;4979994;28;20645;-43
2023/03/18 10:59:15;;;;;;;4.43;4.03;;;15.50;99.90;;;;;;5002512;28;20510;-44
2023/03/18 11:01:44;;;;;;;6.45;4.45;;;15.60;99.90;;;;;;5003165;28;20034;-43
2023/03/18 11:04:17;;;;;;;6.65;4.82;;;15.70;99.90;;;;;;5002211;28;20370;-44
2023/03/18 11:06:50;;;;;;;6.53;4.55;;;15.90;99.90;;;;;;5002930;28;20109;-43
2023/03/18 11:09:23;;;;;;;5.82;4.00;;;16.00;99.90;;;;;;5002988;28;20048;-44
2023/03/18 11:11:55;;;;;;;4.85;4.18;;;16.20;99.90;;;;;;5002186;28;20033;-44
2023/03/18 11:14:29;;;;;;;5.38;3.75;;;16.40;99.90;;;;;;5002779;28;20034;-44
2023/03/18 11:17:00;;;;;;;4.18;3.72;;;16.50;99.90;;;;;;5002318;28;20026;-43
2023/03/18 11:19:29;;;;;;;5.70;3.70;;;16.60;99.90;;;;;;5002453;28;20064;-43
2023/03/18 11:22:10;;;;;;;4.50;3.50;;;16.60;99.90;;;;;;5003295;28;20080;-43
2023/03/18 11:24:38;;;;;;;3.60;2.95;;;16.70;99.90;;;;;;5002817;28;20843;-44
2023/03/18 11:27:23;;;;;;;3.05;2.50;;;16.80;99.90;;;;;;5002049;28;20036;-44
2023/03/18 11:29:55;;;;;;;4.25;2.55;;;16.80;99.90;;;;;;5002897;28;20034;-43
2023/03/18 11:32:28;;;;;;;3.13;2.42;;;16.90;99.90;;;;;;5001372;28;20026;-43
2023/03/18 11:34:59;;;;;;;4.18;2.58;;;16.90;99.90;;;;;;5002254;28;20041;-43
2023/03/18 11:37:40;;;;;;;4.03;2.35;;;16.90;99.90;;;;;;5002301;28;20169;-43
2023/03/18 11:40:24;;;;;;;2.42;2.05;;;17.00;99.90;;;;;;5000249;28;20076;-42
2023/03/18 11:42:56;;;;;;;3.38;2.03;;;17.00;99.90;;;;;;5002325;28;20064;-43
2023/03/18 11:45:41;;;;;;;2.95;2.15;;;17.10;99.90;;;;;;5001639;28;20759;-43
2023/03/18 11:48:36;;;;;;;2.75;2.20;;;17.20;99.90;;;;;;5002564;28;20512;-43
2023/03/18 11:51:02;;;;;;;3.08;2.20;;;17.20;99.90;;;;;;5003442;28;21106;-44
2023/03/18 11:53:51;;;;;;;3.10;2.30;;;17.20;99.90;;;;;;5002720;28;20153;-43
2023/03/18 11:56:32;;;;;;;2.83;1.98;;;17.20;99.90;;;;;;5002319;28;20049;-43
2023/03/18 11:59:35;;;;;;;2.72;1.83;;;17.20;99.90;;;;;;5001732;28;20084;-44
2023/03/18 12:02:03;;;;;;;;;;;17.30;99.90;;;;;;4983298;28;20026;-44
2023/03/18 12:04:29;;;;;;;3.00;2.50;;;17.40;99.90;;;;;;4999826;28;19909;-44
2023/03/18 12:07:29;;;;;;;2.78;2.35;;;17.60;99.90;;;;;;5002192;28;20021;-44
2023/03/18 12:10:33;;;;;;;3.38;2.10;;;17.70;99.90;;;;;;4932525;28;20501;-44
2023/03/18 12:13:32;;;;;;;2.45;1.77;;;17.90;99.90;;;;;;4929838;28;20047;-44
2023/03/18 12:16:22;;;;;;;3.50;2.40;;;18.10;99.90;;;;;;4993574;28;20030;-44
2023/03/18 12:19:19;;;;;;;2.63;2.40;;;18.10;99.90;;;;;;5001709;28;20034;-44
2023/03/18 12:22:00;;;;;;;3.53;2.50;;;18.10;99.90;;;;;;5001243;28;20037;-44
2023/03/18 12:24:31;;;;;;;4.53;3.30;;;18.10;99.90;;;;;;5001695;28;20037;-44
2023/03/18 12:27:13;;;;;;;3.30;2.80;;;18.10;99.90;;;;;;5000992;28;20046;-44
2023/03/18 12:30:03;;;;;;;2.30;2.03;;;18.10;99.90;;;;;;5001343;28;20033;-44
2023/03/18 12:32:32;;;;;;;2.90;2.00;;;18.10;99.90;;;;;;5000191;28;20045;-44
2023/03/18 12:35:04;;;;;;;2.58;2.20;;;18.10;99.90;;;;;;4998571;28;20030;-44
2023/03/18 12:38:08;;;;;;;2.33;2.13;;;18.10;99.90;;;;;;4999528;28;20046;-43
2023/03/18 12:40:54;;;;;;;2.67;2.10;;;18.10;99.90;;;;;;4999891;28;20040;-44
2023/03/18 12:43:36;;;;;;;3.95;2.50;;;18.10;99.90;;;;;;4998959;28;20041;-43
2023/03/18 12:46:28;;;;;;;4.47;2.05;;;18.00;99.90;;;;;;4999417;28;20026;-43
2023/03/18 12:49:13;;;;;;;2.63;1.80;;;18.00;99.90;;;;;;5000634;28;20061;-43
2023/03/18 12:51:55;;;;;;;3.47;3.17;;;18.10;99.90;;;;;;4998716;28;20033;-43
2023/03/18 12:54:27;;;;;;;3.55;2.75;;;18.10;99.90;;;;;;5001284;28;20033;-43
2023/03/18 12:57:01;;;;;;;3.92;2.30;;;18.00;99.90;;;;;;5000383;28;20133;-44
2023/03/18 12:59:39;;;;;;;4.05;3.00;;;18.00;99.90;;;;;;5000673;28;20034;-44